Shiraz, Iran
Current Conditions -  °F | °C
As of 5:00 PM on Monday 22 Dec 2014 (Local Time) from OISS Reporting Station
Few Clouds Few Clouds  
Wind Chill: 50°   Ceiling: Unl
Heat Index: 50°   Visibility: 6mi
Dew Point: 25°   Wind: 5mph
Humidity: 37%   Direction: 240°WSW
Pressure: 29.97"   Gusts: NA
Location:  29.63°N, 52.57°E
Report Text: OISS 221400Z 24004KT 9999 FEW040 10/M04 Q1015 A2999
Loading
Personal Weather Stations






























Interactive Weather Map New forecast layout! Learn more

10-Day Weather Forecast

Advertisements
Track Severe Weather on mobile